Time;durP1;ratioP1;P1;durP2;ratioP2;P2;SDS_P1;SDS_P2;PMS_P1;PMS_P2;Temp;Humidity;BMP_temperature;BMP_pressure;BME280_temperature;BME280_humidity;BME280_pressure;Samples;Min_cycle;Max_cycle;Signal;HPM_P1;HPM_P2
2022/11/19 00:00:39;;;;;;;5.50;5.10;;;;;;;;;;4999312;28;20726;-78
2022/11/19 00:03:07;;;;;;;4.33;4.13;;;;;;;;;;4998249;28;20629;-79
2022/11/19 00:05:40;;;;;;;4.93;4.60;;;;;;;;;;4991925;28;20421;-78
2022/11/19 00:08:06;;;;;;;5.33;5.03;;;;;;;;;;4985949;28;20274;-78
2022/11/19 00:10:36;;;;;;;5.18;4.85;;;;;;;;;;4967678;28;20461;-79
2022/11/19 00:13:02;;;;;;;4.70;4.60;;;;;;;;;;4966419;28;20213;-79
2022/11/19 00:15:28;;;;;;;4.97;4.77;;;;;;;;;;4982223;28;20981;-79
2022/11/19 00:17:56;;;;;;;5.73;5.33;;;;;;;;;;4969204;28;20426;-78
2022/11/19 00:20:23;;;;;;;5.27;4.97;;;;;;;;;;4973926;28;20435;-79
2022/11/19 00:22:53;;;;;;;5.50;5.20;;;;;;;;;;4986187;28;20922;-79
2022/11/19 00:25:19;;;;;;;4.00;3.90;;;;;;;;;;4983043;28;20285;-79
2022/11/19 00:27:45;;;;;;;5.65;5.28;;;;;;;;;;4986822;28;20252;-79
2022/11/19 00:30:11;;;;;;;4.37;4.27;;;;;;;;;;4968381;28;20766;-79
2022/11/19 00:32:37;;;;;;;4.78;4.47;;;;;;;;;;4986419;28;20479;-80
2022/11/19 00:35:04;;;;;;;4.53;4.32;;;;;;;;;;4988420;28;20198;-79
2022/11/19 00:37:30;;;;;;;5.20;4.97;;;;;;;;;;4986346;28;20189;-80
2022/11/19 00:39:56;;;;;;;6.05;5.55;;;;;;;;;;4991211;28;20670;-79
2022/11/19 00:42:23;;;;;;;5.73;5.40;;;;;;;;;;4996606;28;20189;-80
2022/11/19 00:44:49;;;;;;;4.80;4.60;;;;;;;;;;4941957;28;20433;-78
2022/11/19 00:47:15;;;;;;;4.88;4.65;;;;;;;;;;4962025;28;20652;-80
2022/11/19 00:49:41;;;;;;;5.20;5.00;;;;;;;;;;4969124;28;20680;-79
2022/11/19 00:52:07;;;;;;;4.78;4.63;;;;;;;;;;4959488;28;20775;-79
2022/11/19 00:54:33;;;;;;;4.93;4.63;;;;;;;;;;4952614;28;20304;-79
2022/11/19 00:57:00;;;;;;;6.30;5.95;;;;;;;;;;4961973;28;20248;-79
2022/11/19 00:59:32;;;;;;;6.13;5.73;;;;;;;;;;4973832;28;20730;-79
2022/11/19 01:01:58;;;;;;;5.45;5.15;;;;;;;;;;4949691;28;20778;-79
2022/11/19 01:04:24;;;;;;;6.65;6.20;;;;;;;;;;4951687;28;20186;-79
2022/11/19 01:06:50;;;;;;;5.50;5.20;;;;;;;;;;4945127;28;20202;-80
2022/11/19 01:09:16;;;;;;;7.27;6.60;;;;;;;;;;4963521;28;20214;-80
2022/11/19 01:11:42;;;;;;;5.77;5.23;;;;;;;;;;4963566;28;20445;-80
2022/11/19 01:14:11;;;;;;;5.72;5.32;;;;;;;;;;4969213;28;20477;-80
2022/11/19 01:16:39;;;;;;;6.10;5.70;;;;;;;;;;4964617;28;20209;-81
2022/11/19 01:19:06;;;;;;;5.28;4.93;;;;;;;;;;4969620;28;20534;-80
2022/11/19 01:21:33;;;;;;;6.93;6.43;;;;;;;;;;4944568;28;20220;-79
2022/11/19 01:23:59;;;;;;;7.32;6.65;;;;;;;;;;4975071;28;20963;-79
2022/11/19 01:26:26;;;;;;;7.57;6.90;;;;;;;;;;4971296;28;20233;-80
2022/11/19 01:28:52;;;;;;;8.10;7.40;;;;;;;;;;4981955;28;20193;-79
2022/11/19 01:31:20;;;;;;;7.40;6.80;;;;;;;;;;4973821;28;20213;-80
2022/11/19 01:33:46;;;;;;;7.07;6.53;;;;;;;;;;4966903;28;20882;-79
2022/11/19 01:36:14;;;;;;;6.63;6.13;;;;;;;;;;4971868;28;20429;-79
2022/11/19 01:38:40;;;;;;;7.13;6.53;;;;;;;;;;4971982;28;20186;-80
2022/11/19 01:41:07;;;;;;;8.15;7.35;;;;;;;;;;4972585;28;20283;-79
2022/11/19 01:43:39;;;;;;;9.32;6.70;;;;;;;;;;4969786;28;20221;-80
2022/11/19 01:46:05;;;;;;;9.68;7.10;;;;;;;;;;4986216;28;20557;-79
2022/11/19 01:48:32;;;;;;;7.35;6.75;;;;;;;;;;4973683;28;20756;-79
2022/11/19 01:51:02;;;;;;;8.75;7.85;;;;;;;;;;4982312;28;20200;-80
2022/11/19 01:53:30;;;;;;;7.05;6.45;;;;;;;;;;4994580;28;20205;-80
2022/11/19 01:56:02;;;;;;;8.83;7.97;;;;;;;;;;4976448;28;20853;-79
2022/11/19 01:58:29;;;;;;;6.30;5.90;;;;;;;;;;4983272;28;20515;-79
2022/11/19 02:00:55;;;;;;;8.80;7.65;;;;;;;;;;4980208;28;20544;-80
2022/11/19 02:03:21;;;;;;;7.20;6.70;;;;;;;;;;4990606;28;20281;-79
2022/11/19 02:05:47;;;;;;;8.35;7.40;;;;;;;;;;4987020;28;20262;-79
2022/11/19 02:08:33;;;;;;;9.73;8.75;;;;;;;;;;4999286;28;20726;-79
2022/11/19 02:11:06;;;;;;;11.57;8.38;;;;;;;;;;4958833;28;20221;-78
2022/11/19 02:13:38;;;;;;;11.32;8.93;;;;;;;;;;4990692;28;20205;-79
2022/11/19 02:16:10;;;;;;;12.02;9.93;;;;;;;;;;4990766;28;20390;-79
2022/11/19 02:18:40;;;;;;;11.27;8.98;;;;;;;;;;4978483;28;20185;-79
2022/11/19 02:21:16;;;;;;;11.07;8.97;;;;;;;;;;4976616;28;20522;-79
2022/11/19 02:23:51;;;;;;;12.00;9.43;;;;;;;;;;4981951;28;20435;-79
2022/11/19 02:26:36;;;;;;;16.60;11.57;;;;;;;;;;4991095;28;20224;-79
2022/11/19 02:29:18;;;;;;;14.48;9.70;;;;;;;;;;4998216;28;20205;-79
2022/11/19 02:31:47;;;;;;;13.35;10.10;;;;;;;;;;4974649;28;20212;-78
2022/11/19 02:34:20;;;;;;;15.70;11.32;;;;;;;;;;4997698;28;20220;-79
2022/11/19 02:36:58;;;;;;;16.35;10.20;;;;;;;;;;4984778;28;20201;-79
2022/11/19 02:39:29;;;;;;;15.27;9.98;;;;;;;;;;4996667;28;20196;-79
2022/11/19 02:42:03;;;;;;;15.55;11.07;;;;;;;;;;4983269;28;20211;-79
2022/11/19 02:47:20;;;;;;;15.30;11.98;;;;;;;;;;5007776;28;20606;-78
2022/11/19 02:49:47;;;;;;;14.43;11.65;;;;;;;;;;4978739;28;20203;-78
2022/11/19 02:52:16;;;;;;;16.25;12.65;;;;;;;;;;5003559;28;20173;-78
2022/11/19 02:54:42;;;;;;;15.20;12.05;;;;;;;;;;5004212;28;20793;-79
2022/11/19 02:57:09;;;;;;;18.63;12.60;;;;;;;;;;4988902;28;20336;-79
2022/11/19 03:05:17;;;;;;;18.25;12.95;;;;;;;;;;4978492;28;20241;-79
2022/11/19 03:07:43;;;;;;;17.83;13.83;;;;;;;;;;4972758;28;20173;-78
2022/11/19 03:10:10;;;;;;;21.33;13.48;;;;;;;;;;4996313;28;20514;-78
2022/11/19 03:12:58;;;;;;;17.65;14.65;;;;;;;;;;4992245;28;22450;-79
2022/11/19 03:18:30;;;;;;;20.52;14.93;;;;;;;;;;4988307;28;20272;-78
2022/11/19 03:21:03;;;;;;;22.40;15.55;;;;;;;;;;4985720;28;20219;-78
2022/11/19 03:23:31;;;;;;;21.80;15.73;;;;;;;;;;4981557;28;20188;-78
2022/11/19 03:26:01;;;;;;;20.27;14.35;;;;;;;;;;4992886;28;20236;-78
2022/11/19 03:28:35;;;;;;;19.90;13.85;;;;;;;;;;4985240;28;20195;-78
2022/11/19 03:31:02;;;;;;;22.15;15.43;;;;;;;;;;4977152;28;20671;-77
2022/11/19 03:33:31;;;;;;;20.58;16.23;;;;;;;;;;4992966;28;20303;-78
2022/11/19 03:36:15;;;;;;;22.33;16.17;;;;;;;;;;4987866;28;20220;-77
2022/11/19 03:38:44;;;;;;;21.38;15.35;;;;;;;;;;4974907;28;20248;-78
2022/11/19 03:41:11;;;;;;;25.88;16.70;;;;;;;;;;4978356;28;20209;-79
2022/11/19 03:43:38;;;;;;;28.13;18.20;;;;;;;;;;4983561;28;20547;-78
2022/11/19 03:46:05;;;;;;;26.75;15.77;;;;;;;;;;4968840;28;20186;-78
2022/11/19 03:48:31;;;;;;;18.17;14.27;;;;;;;;;;4977195;28;20189;-78
2022/11/19 03:50:59;;;;;;;22.10;17.15;;;;;;;;;;4975023;28;20548;-78
2022/11/19 03:53:25;;;;;;;22.38;15.45;;;;;;;;;;4974653;28;20679;-79
2022/11/19 03:56:10;;;;;;;25.85;16.95;;;;;;;;;;4954867;28;20289;-78
2022/11/19 03:58:37;;;;;;;20.67;15.57;;;;;;;;;;4977295;28;20182;-79
2022/11/19 04:01:03;;;;;;;20.38;15.35;;;;;;;;;;4980640;28;20744;-79
2022/11/19 04:03:34;;;;;;;22.33;15.13;;;;;;;;;;4973285;28;20177;-77
2022/11/19 04:06:01;;;;;;;19.75;15.20;;;;;;;;;;4981392;28;20565;-78
2022/11/19 04:08:27;;;;;;;24.33;17.25;;;;;;;;;;4964619;28;20816;-78
2022/11/19 04:10:53;;;;;;;19.20;15.57;;;;;;;;;;4986846;28;20709;-78
2022/11/19 04:13:19;;;;;;;21.80;16.67;;;;;;;;;;4976823;28;20210;-78
2022/11/19 04:15:48;;;;;;;21.98;14.88;;;;;;;;;;4973139;28;20189;-78
2022/11/19 04:18:14;;;;;;;22.00;16.90;;;;;;;;;;4974261;28;20569;-78
2022/11/19 04:20:42;;;;;;;22.90;17.10;;;;;;;;;;4974877;28;20195;-78
2022/11/19 04:23:08;;;;;;;23.47;15.97;;;;;;;;;;4968114;28;20207;-78
2022/11/19 04:25:34;;;;;;;22.55;16.25;;;;;;;;;;4993765;28;20436;-78
2022/11/19 04:28:00;;;;;;;23.30;15.53;;;;;;;;;;4976474;28;20206;-78
2022/11/19 04:30:26;;;;;;;21.05;16.55;;;;;;;;;;4973454;28;20478;-78
2022/11/19 04:32:52;;;;;;;24.23;17.30;;;;;;;;;;4992700;28;20345;-79
2022/11/19 04:35:20;;;;;;;23.15;17.15;;;;;;;;;;4970360;28;20193;-79
2022/11/19 04:37:46;;;;;;;22.15;17.27;;;;;;;;;;4986713;28;20224;-79
2022/11/19 04:40:13;;;;;;;21.60;17.00;;;;;;;;;;4977262;28;20430;-80
2022/11/19 04:42:39;;;;;;;23.15;17.52;;;;;;;;;;4976938;28;20224;-78
2022/11/19 04:45:05;;;;;;;27.67;19.63;;;;;;;;;;4960337;28;20228;-78
2022/11/19 04:47:31;;;;;;;20.00;15.45;;;;;;;;;;4975180;28;20202;-78
2022/11/19 04:49:57;;;;;;;27.53;18.80;;;;;;;;;;4972353;28;20287;-78
2022/11/19 04:52:23;;;;;;;32.67;19.15;;;;;;;;;;4982412;28;20445;-78
2022/11/19 04:54:49;;;;;;;22.05;16.65;;;;;;;;;;4958639;28;20197;-79
2022/11/19 04:57:15;;;;;;;26.13;18.20;;;;;;;;;;4967314;28;20201;-79
2022/11/19 04:59:41;;;;;;;27.13;18.13;;;;;;;;;;4991929;28;20193;-78
2022/11/19 05:02:07;;;;;;;25.33;18.58;;;;;;;;;;4993128;28;20197;-78
2022/11/19 05:04:34;;;;;;;29.58;16.17;;;;;;;;;;4976903;28;20181;-78
2022/11/19 05:07:00;;;;;;;26.27;18.17;;;;;;;;;;4966977;28;20197;-79
2022/11/19 05:09:26;;;;;;;23.00;17.25;;;;;;;;;;4976194;28;20205;-78
2022/11/19 05:11:52;;;;;;;27.13;18.45;;;;;;;;;;4971256;28;20202;-79
2022/11/19 05:14:18;;;;;;;28.55;18.52;;;;;;;;;;4953667;28;20221;-78
2022/11/19 05:16:44;;;;;;;23.17;18.70;;;;;;;;;;5000055;28;20352;-79
2022/11/19 05:19:10;;;;;;;27.42;18.90;;;;;;;;;;4974737;28;20190;-78
2022/11/19 05:21:36;;;;;;;27.38;18.38;;;;;;;;;;4967526;28;20190;-78
2022/11/19 05:24:02;;;;;;;24.17;17.58;;;;;;;;;;4977528;28;20182;-78
2022/11/19 05:26:28;;;;;;;27.02;17.88;;;;;;;;;;4987231;28;20623;-77
2022/11/19 05:28:54;;;;;;;25.83;16.25;;;;;;;;;;4991596;28;20177;-78
2022/11/19 05:31:20;;;;;;;27.90;18.00;;;;;;;;;;4992058;28;20549;-78
2022/11/19 05:33:46;;;;;;;23.80;16.50;;;;;;;;;;4985791;28;20201;-77
2022/11/19 05:36:12;;;;;;;25.05;18.90;;;;;;;;;;4989464;28;20428;-77
2022/11/19 05:38:39;;;;;;;26.25;17.25;;;;;;;;;;4975409;28;20177;-79
2022/11/19 05:41:06;;;;;;;22.38;15.98;;;;;;;;;;4969177;28;20194;-78
2022/11/19 05:43:32;;;;;;;23.73;18.77;;;;;;;;;;4984260;28;20223;-78
2022/11/19 05:46:01;;;;;;;28.20;19.13;;;;;;;;;;4980763;28;20675;-78
2022/11/19 05:48:28;;;;;;;23.67;18.40;;;;;;;;;;4980428;28;20958;-78
2022/11/19 05:50:54;;;;;;;26.38;16.60;;;;;;;;;;4992844;28;20185;-78
2022/11/19 05:53:20;;;;;;;24.92;17.85;;;;;;;;;;4974287;28;20217;-79
2022/11/19 05:55:46;;;;;;;23.48;17.92;;;;;;;;;;4957066;28;20209;-79
2022/11/19 05:58:12;;;;;;;23.15;14.43;;;;;;;;;;4969637;28;20610;-78
2022/11/19 06:00:38;;;;;;;27.15;18.02;;;;;;;;;;5001283;28;20194;-78
2022/11/19 06:03:04;;;;;;;30.83;19.67;;;;;;;;;;4970807;28;20199;-79
2022/11/19 06:05:30;;;;;;;26.33;17.02;;;;;;;;;;4975756;28;20193;-80
2022/11/19 06:07:57;;;;;;;25.20;17.80;;;;;;;;;;4959753;28;20495;-79
2022/11/19 06:10:23;;;;;;;26.77;19.13;;;;;;;;;;4971946;28;20308;-79
2022/11/19 06:12:49;;;;;;;21.48;13.20;;;;;;;;;;4952599;28;20216;-80
2022/11/19 06:15:15;;;;;;;28.60;20.02;;;;;;;;;;4962883;28;20193;-79
2022/11/19 06:17:42;;;;;;;24.75;17.75;;;;;;;;;;4984717;28;20197;-79
2022/11/19 06:20:09;;;;;;;25.50;17.73;;;;;;;;;;4996108;28;20193;-79
2022/11/19 06:22:36;;;;;;;29.50;20.00;;;;;;;;;;4999003;28;20629;-81
2022/11/19 06:25:02;;;;;;;23.83;17.65;;;;;;;;;;4991867;28;20189;-79
2022/11/19 06:27:29;;;;;;;25.10;17.90;;;;;;;;;;4977834;28;20188;-81
2022/11/19 06:29:55;;;;;;;31.02;19.13;;;;;;;;;;4985302;28;20193;-79
2022/11/19 06:32:21;;;;;;;28.47;19.27;;;;;;;;;;4974267;28;20225;-77
2022/11/19 06:34:47;;;;;;;29.98;20.85;;;;;;;;;;4999171;28;20479;-79
2022/11/19 06:37:13;;;;;;;36.03;19.25;;;;;;;;;;4996872;28;20200;-78
2022/11/19 06:39:39;;;;;;;28.73;19.85;;;;;;;;;;4977615;28;20207;-78
2022/11/19 06:44:50;;;;;;;31.35;19.42;;;;;;;;;;4985845;28;20231;-79
2022/11/19 06:47:16;;;;;;;31.27;19.40;;;;;;;;;;4964548;28;20324;-79
2022/11/19 06:49:42;;;;;;;32.72;20.25;;;;;;;;;;4981604;28;20342;-79
2022/11/19 06:52:09;;;;;;;31.15;20.02;;;;;;;;;;4973414;28;20190;-79
2022/11/19 06:54:35;;;;;;;30.25;20.33;;;;;;;;;;4984979;28;20201;-78
2022/11/19 06:57:01;;;;;;;34.70;20.50;;;;;;;;;;4984503;28;20675;-79
2022/11/19 06:59:28;;;;;;;32.90;19.75;;;;;;;;;;4971369;28;20189;-79
2022/11/19 07:01:54;;;;;;;33.85;21.05;;;;;;;;;;4989543;28;20657;-78
2022/11/19 07:04:20;;;;;;;31.02;18.13;;;;;;;;;;4996426;28;20185;-79
2022/11/19 07:06:46;;;;;;;34.33;21.38;;;;;;;;;;4960453;28;20213;-79
2022/11/19 07:09:12;;;;;;;29.30;19.70;;;;;;;;;;4963452;28;20232;-80
2022/11/19 07:11:39;;;;;;;28.08;18.30;;;;;;;;;;4963620;28;20221;-79
2022/11/19 07:14:06;;;;;;;27.73;18.05;;;;;;;;;;4957970;28;20221;-81
2022/11/19 07:16:35;;;;;;;30.45;19.33;;;;;;;;;;4974343;28;20182;-80
2022/11/19 07:19:02;;;;;;;31.27;18.40;;;;;;;;;;4980914;28;20189;-83
2022/11/19 07:21:31;;;;;;;26.85;17.77;;;;;;;;;;4964379;28;20202;-82
2022/11/19 07:23:58;;;;;;;24.63;16.60;;;;;;;;;;4623914;28;10000354;-81
2022/11/19 07:26:27;;;;;;;28.40;18.30;;;;;;;;;;4952629;28;20441;-81
2022/11/19 07:29:03;;;;;;;24.90;18.23;;;;;;;;;;4976511;28;20538;-79
2022/11/19 07:31:49;;;;;;;26.00;18.27;;;;;;;;;;4955087;28;20197;-78
2022/11/19 07:34:17;;;;;;;24.67;16.02;;;;;;;;;;4985069;28;20630;-80
2022/11/19 07:36:46;;;;;;;26.02;17.15;;;;;;;;;;4975941;28;20561;-79
2022/11/19 07:39:13;;;;;;;27.90;16.40;;;;;;;;;;4984327;28;20471;-79
2022/11/19 07:44:23;;;;;;;28.33;17.10;;;;;;;;;;4976780;28;20224;-78
2022/11/19 07:46:50;;;;;;;27.83;17.08;;;;;;;;;;4975838;28;20201;-78
2022/11/19 07:49:16;;;;;;;27.80;17.25;;;;;;;;;;4966109;28;20699;-79
2022/11/19 07:51:44;;;;;;;25.53;16.10;;;;;;;;;;4976902;28;20516;-84
2022/11/19 07:56:42;;;;;;;24.98;17.95;;;;;;;;;;4987919;28;20220;-80
2022/11/19 07:59:08;;;;;;;31.98;18.35;;;;;;;;;;4967619;28;20197;-79
2022/11/19 08:01:35;;;;;;;26.15;14.70;;;;;;;;;;4982969;28;20232;-81
2022/11/19 08:04:04;;;;;;;21.70;16.23;;;;;;;;;;4993428;28;20276;-77
2022/11/19 08:06:40;;;;;;;;;;;;;;;;;;;;;
2022/11/19 08:09:06;;;;;;;24.48;16.15;;;;;;;;;;4980470;28;20196;-78
2022/11/19 08:11:33;;;;;;;24.27;15.68;;;;;;;;;;4967898;28;20965;-80
2022/11/19 08:14:00;;;;;;;26.80;16.67;;;;;;;;;;4979227;28;20792;-81
2022/11/19 08:19:13;;;;;;;24.17;16.95;;;;;;;;;;4959202;28;20288;-82
2022/11/19 08:21:40;;;;;;;19.05;14.73;;;;;;;;;;4972087;28;20816;-81
2022/11/19 08:24:07;;;;;;;23.85;17.10;;;;;;;;;;4970977;28;20190;-78
2022/11/19 08:26:33;;;;;;;21.88;15.80;;;;;;;;;;4974029;28;20204;-78
2022/11/19 08:28:59;;;;;;;24.63;16.23;;;;;;;;;;4951185;28;20205;-80
2022/11/19 08:31:26;;;;;;;23.35;14.98;;;;;;;;;;4967021;28;20202;-79
2022/11/19 08:33:52;;;;;;;21.08;15.23;;;;;;;;;;4966302;28;20218;-80
2022/11/19 08:36:18;;;;;;;23.70;16.08;;;;;;;;;;4949928;28;20205;-81
2022/11/19 08:38:44;;;;;;;22.10;16.50;;;;;;;;;;4966696;28;20197;-81
2022/11/19 08:43:55;;;;;;;21.00;15.27;;;;;;;;;;4956912;28;20216;-79
2022/11/19 08:46:21;;;;;;;23.38;16.40;;;;;;;;;;4968791;28;20206;-78
2022/11/19 08:48:47;;;;;;;28.67;17.75;;;;;;;;;;4967932;28;20193;-78
2022/11/19 08:51:15;;;;;;;21.58;15.43;;;;;;;;;;4955161;28;20206;-77
2022/11/19 08:53:41;;;;;;;20.38;13.52;;;;;;;;;;4966093;28;20244;-77
2022/11/19 08:56:07;;;;;;;24.33;16.92;;;;;;;;;;4965817;28;20716;-78
2022/11/19 08:58:34;;;;;;;26.73;15.35;;;;;;;;;;4966030;28;20197;-79
2022/11/19 09:01:07;;;;;;;24.58;16.05;;;;;;;;;;4953563;28;20249;-78
2022/11/19 09:03:33;;;;;;;20.25;14.13;;;;;;;;;;4963696;28;20225;-79
2022/11/19 09:06:00;;;;;;;18.95;15.15;;;;;;;;;;4962287;28;20405;-79
2022/11/19 09:08:26;;;;;;;20.20;15.65;;;;;;;;;;4966995;28;20283;-77
2022/11/19 09:10:52;;;;;;;21.23;15.10;;;;;;;;;;4958019;28;20199;-78
2022/11/19 09:13:18;;;;;;;21.67;15.05;;;;;;;;;;4963514;28;20261;-76
2022/11/19 09:15:47;;;;;;;19.88;14.20;;;;;;;;;;4955670;28;20198;-77
2022/11/19 09:18:13;;;;;;;22.65;15.85;;;;;;;;;;4965341;28;20270;-77
2022/11/19 09:20:39;;;;;;;21.20;15.27;;;;;;;;;;4964933;28;20210;-76
2022/11/19 09:23:06;;;;;;;22.17;15.63;;;;;;;;;;4965397;28;20221;-77
2022/11/19 09:25:32;;;;;;;21.13;13.75;;;;;;;;;;4944686;28;20198;-76
2022/11/19 09:27:58;;;;;;;21.73;14.18;;;;;;;;;;4967684;28;20221;-77
2022/11/19 09:30:24;;;;;;;22.23;15.05;;;;;;;;;;4963530;28;20202;-77
2022/11/19 09:32:50;;;;;;;29.33;16.40;;;;;;;;;;4950065;28;20202;-77
2022/11/19 09:35:17;;;;;;;21.63;14.50;;;;;;;;;;4943100;28;20209;-77
2022/11/19 09:37:44;;;;;;;22.45;14.98;;;;;;;;;;4964170;28;20430;-77
2022/11/19 09:40:18;;;;;;;23.55;15.63;;;;;;;;;;4949894;28;20205;-76
2022/11/19 09:42:51;;;;;;;22.35;15.75;;;;;;;;;;4960152;28;20182;-78
2022/11/19 09:45:40;;;;;;;22.15;15.07;;;;;;;;;;4965123;28;20198;-79
2022/11/19 09:48:24;;;;;;;20.00;14.38;;;;;;;;;;4919055;28;20366;-79
2022/11/19 09:50:58;;;;;;;15.98;12.65;;;;;;;;;;4972093;28;20232;-79
2022/11/19 09:53:30;;;;;;;18.75;14.95;;;;;;;;;;4955420;28;20205;-77
2022/11/19 09:55:58;;;;;;;21.13;15.23;;;;;;;;;;4961723;28;20292;-76
2022/11/19 09:58:39;;;;;;;18.08;14.38;;;;;;;;;;4957127;28;20683;-77
2022/11/19 10:01:05;;;;;;;20.30;14.02;;;;;;;;;;4950390;28;20201;-79
2022/11/19 10:03:31;;;;;;;16.20;12.37;;;;;;;;;;4973348;28;20220;-78
2022/11/19 10:06:02;;;;;;;18.38;13.13;;;;;;;;;;4959723;28;20445;-77
2022/11/19 10:08:38;;;;;;;17.35;13.00;;;;;;;;;;4947406;28;20201;-76
2022/11/19 10:11:27;;;;;;;19.38;14.75;;;;;;;;;;4970646;28;20719;-77
2022/11/19 10:13:54;;;;;;;19.85;14.07;;;;;;;;;;4963120;28;20276;-77
2022/11/19 10:16:26;;;;;;;20.00;13.75;;;;;;;;;;4972785;28;20195;-79
2022/11/19 10:18:58;;;;;;;18.52;12.18;;;;;;;;;;4975581;28;20343;-77
2022/11/19 10:21:24;;;;;;;13.77;10.30;;;;;;;;;;4973750;28;20186;-76
2022/11/19 10:23:53;;;;;;;13.98;11.60;;;;;;;;;;4972238;28;20206;-78
2022/11/19 10:26:25;;;;;;;18.67;14.68;;;;;;;;;;4967577;28;20241;-78
2022/11/19 10:28:53;;;;;;;19.83;13.82;;;;;;;;;;4942037;28;20261;-77
2022/11/19 10:31:32;;;;;;;17.40;12.93;;;;;;;;;;4950983;28;20217;-77
2022/11/19 10:34:04;;;;;;;18.42;13.00;;;;;;;;;;4949895;28;20240;-77
2022/11/19 10:36:33;;;;;;;16.83;13.85;;;;;;;;;;4965913;28;20198;-77
2022/11/19 10:39:18;;;;;;;18.90;13.45;;;;;;;;;;4974559;28;20749;-77
2022/11/19 10:41:44;;;;;;;22.40;13.32;;;;;;;;;;4964996;28;20486;-77
2022/11/19 10:44:42;;;;;;;19.48;13.38;;;;;;;;;;4952405;28;20201;-80
2022/11/19 10:47:26;;;;;;;15.70;13.18;;;;;;;;;;4958140;28;20186;-79
2022/11/19 10:49:53;;;;;;;22.55;15.75;;;;;;;;;;4976708;28;20727;-79
2022/11/19 10:52:35;;;;;;;21.77;12.60;;;;;;;;;;4963528;28;20262;-79
2022/11/19 10:55:15;;;;;;;12.38;10.15;;;;;;;;;;4965631;28;20473;-79
2022/11/19 10:57:41;;;;;;;18.42;13.40;;;;;;;;;;4970810;28;20233;-78
2022/11/19 11:00:07;;;;;;;16.27;11.95;;;;;;;;;;4977746;28;20239;-78
2022/11/19 11:02:49;;;;;;;19.92;13.68;;;;;;;;;;4956986;28;20273;-79
2022/11/19 11:05:16;;;;;;;20.13;14.48;;;;;;;;;;4986859;28;20970;-80
2022/11/19 11:07:50;;;;;;;15.38;11.27;;;;;;;;;;4969897;28;20196;-81
2022/11/19 11:10:48;;;;;;;13.50;12.07;;;;;;;;;;4949967;28;20687;-79
2022/11/19 11:16:06;;;;;;;20.23;12.75;;;;;;;;;;4966341;28;20213;-79
2022/11/19 11:18:33;;;;;;;18.48;13.73;;;;;;;;;;4959234;28;20209;-80
2022/11/19 11:20:59;;;;;;;17.63;13.20;;;;;;;;;;4968525;28;20240;-80
2022/11/19 11:23:26;;;;;;;13.30;11.40;;;;;;;;;;4959399;28;20281;-80
2022/11/19 11:26:03;;;;;;;15.32;12.40;;;;;;;;;;4952369;28;20194;-78
2022/11/19 11:28:31;;;;;;;14.35;12.20;;;;;;;;;;4962443;28;20551;-78
2022/11/19 11:30:58;;;;;;;13.25;11.95;;;;;;;;;;4952233;28;20190;-79
2022/11/19 11:33:24;;;;;;;13.88;11.02;;;;;;;;;;4957084;28;20271;-80
2022/11/19 11:35:53;;;;;;;16.20;13.02;;;;;;;;;;4985446;28;20193;-79
2022/11/19 11:38:21;;;;;;;12.98;10.90;;;;;;;;;;4934033;29;20640;-79
2022/11/19 11:41:08;;;;;;;13.37;11.97;;;;;;;;;;4966702;28;20205;-78
2022/11/19 11:44:02;;;;;;;15.45;12.77;;;;;;;;;;4952749;28;20425;-78
2022/11/19 11:46:40;;;;;;;14.52;10.98;;;;;;;;;;4953415;28;20198;-78
2022/11/19 11:49:10;;;;;;;17.88;12.52;;;;;;;;;;4953212;28;20253;-77
2022/11/19 11:51:40;;;;;;;12.30;10.60;;;;;;;;;;4981061;28;20283;-77
2022/11/19 11:54:16;;;;;;;14.50;12.97;;;;;;;;;;4961145;28;20501;-78
2022/11/19 11:56:43;;;;;;;13.93;10.53;;;;;;;;;;4943606;28;20476;-77
2022/11/19 11:59:15;;;;;;;12.90;11.35;;;;;;;;;;4971864;28;20536;-76
2022/11/19 12:01:42;;;;;;;12.30;9.32;;;;;;;;;;4956125;28;20194;-77
2022/11/19 12:04:11;;;;;;;13.80;10.77;;;;;;;;;;4980188;28;20394;-80
2022/11/19 12:06:58;;;;;;;12.27;10.53;;;;;;;;;;4964609;28;20445;-78
2022/11/19 12:09:35;;;;;;;13.57;11.30;;;;;;;;;;4946132;28;20993;-78
2022/11/19 12:14:57;;;;;;;11.25;10.07;;;;;;;;;;5091016;23;20606;-76
2022/11/19 12:20:35;;;;;;;11.23;9.97;;;;;;;;;;4992132;28;20191;-79
2022/11/19 12:23:07;;;;;;;14.30;11.05;;;;;;;;;;4991801;28;21024;-76
2022/11/19 12:25:52;;;;;;;11.77;10.57;;;;;;;;;;5001051;28;20168;-78
2022/11/19 12:28:36;;;;;;;12.50;10.55;;;;;;;;;;4999752;28;20572;-78
2022/11/19 12:31:21;;;;;;;11.07;9.95;;;;;;;;;;4980905;28;20184;-79
2022/11/19 12:34:00;;;;;;;11.57;10.47;;;;;;;;;;5007230;28;20203;-78
2022/11/19 12:36:35;;;;;;;11.90;10.57;;;;;;;;;;4979326;28;20441;-81
2022/11/19 12:39:06;;;;;;;10.80;8.27;;;;;;;;;;4994092;28;20499;-80
2022/11/19 12:41:35;;;;;;;9.80;8.80;;;;;;;;;;5004933;28;20443;-79
2022/11/19 12:44:02;;;;;;;12.02;10.80;;;;;;;;;;5008682;28;20415;-80
2022/11/19 12:46:34;;;;;;;11.05;9.93;;;;;;;;;;5011322;28;20200;-79
2022/11/19 12:49:09;;;;;;;14.23;10.30;;;;;;;;;;5012485;28;20172;-80
2022/11/19 12:54:57;;;;;;;12.07;10.15;;;;;;;;;;4968091;28;20205;-79
2022/11/19 12:57:23;;;;;;;11.23;9.85;;;;;;;;;;4995979;28;20201;-81
2022/11/19 13:00:04;;;;;;;9.68;8.68;;;;;;;;;;4990505;28;20197;-81
2022/11/19 13:02:40;;;;;;;11.35;10.27;;;;;;;;;;4998693;28;20665;-80
2022/11/19 13:05:28;;;;;;;12.48;8.80;;;;;;;;;;4994630;28;20299;-79
2022/11/19 13:07:57;;;;;;;10.55;9.45;;;;;;;;;;4984556;28;20195;-80
2022/11/19 13:10:27;;;;;;;10.73;9.63;;;;;;;;;;5008955;28;20196;-85
2022/11/19 13:13:05;;;;;;;;;;;;;;;;;;;;;
2022/11/19 13:15:34;;;;;;;19.13;13.13;;;;;;;;;;4995722;28;20230;-78
2022/11/19 13:18:02;;;;;;;10.27;9.38;;;;;;;;;;5006324;28;20212;-81
2022/11/19 13:20:44;;;;;;;11.80;10.70;;;;;;;;;;5007005;28;20433;-79
2022/11/19 13:23:14;;;;;;;11.07;10.07;;;;;;;;;;5003633;28;20180;-79
2022/11/19 13:25:51;;;;;;;11.33;9.53;;;;;;;;;;4983534;28;20204;-80
2022/11/19 13:28:21;;;;;;;11.77;9.82;;;;;;;;;;4985840;28;20415;-81
2022/11/19 13:30:49;;;;;;;12.27;10.48;;;;;;;;;;4983214;28;20495;-78
2022/11/19 13:33:19;;;;;;;11.93;10.15;;;;;;;;;;5011792;28;20210;-81
2022/11/19 13:35:48;;;;;;;11.15;9.88;;;;;;;;;;4991064;28;20208;-80
2022/11/19 13:38:33;;;;;;;12.18;9.27;;;;;;;;;;4994604;28;20200;-78
2022/11/19 13:41:11;;;;;;;10.63;9.18;;;;;;;;;;4989151;28;20268;-78
2022/11/19 13:46:25;;;;;;;11.23;9.20;;;;;;;;;;5000146;28;20188;-81
2022/11/19 13:49:24;;;;;;;8.80;7.97;;;;;;;;;;4997427;28;20204;-80
2022/11/19 13:51:55;;;;;;;11.65;10.00;;;;;;;;;;4983286;28;20228;-81
2022/11/19 13:54:23;;;;;;;10.88;9.77;;;;;;;;;;4983073;28;20224;-79
2022/11/19 13:56:56;;;;;;;11.63;10.27;;;;;;;;;;5002155;28;20193;-84
2022/11/19 13:59:45;;;;;;;11.43;9.27;;;;;;;;;;5007834;28;20591;-85
2022/11/19 14:02:23;;;;;;;12.48;11.15;;;;;;;;;;5004651;28;20453;-80
2022/11/19 14:05:09;;;;;;;12.95;8.75;;;;;;;;;;4996109;28;20666;-81
2022/11/19 14:07:41;;;;;;;11.90;10.35;;;;;;;;;;4997665;28;20192;-79
2022/11/19 14:10:07;;;;;;;11.07;8.68;;;;;;;;;;5004510;28;20603;-78
2022/11/19 14:12:33;;;;;;;13.38;10.95;;;;;;;;;;5003935;28;20211;-78
2022/11/19 14:27:28;;;;;;;8.87;7.97;;;;;;;;;;4308524;28;10000747;-79
2022/11/19 14:29:57;;;;;;;9.85;8.93;;;;;;;;;;4978687;28;20196;-78
2022/11/19 14:32:37;;;;;;;10.73;9.77;;;;;;;;;;4981051;28;20203;-84
2022/11/19 14:35:05;;;;;;;10.48;9.38;;;;;;;;;;5004200;28;20216;-79
2022/11/19 14:37:44;;;;;;;11.05;9.32;;;;;;;;;;4985746;28;20746;-79
2022/11/19 14:40:15;;;;;;;13.57;9.65;;;;;;;;;;4981508;28;20180;-78
2022/11/19 14:48:33;;;;;;;10.82;9.70;;;;;;;;;;5002090;28;20201;-78
2022/11/19 14:51:08;;;;;;;13.50;10.40;;;;;;;;;;4996998;28;20224;-78
2022/11/19 14:53:46;;;;;;;11.82;10.63;;;;;;;;;;4993161;28;20249;-78
2022/11/19 14:56:13;;;;;;;14.98;12.00;;;;;;;;;;5000270;28;20950;-79
2022/11/19 14:58:49;;;;;;;11.10;9.88;;;;;;;;;;4980566;28;20205;-78
2022/11/19 15:01:17;;;;;;;12.60;9.75;;;;;;;;;;4998782;28;20178;-78
2022/11/19 15:03:48;;;;;;;10.23;9.27;;;;;;;;;;5000717;28;20226;-77
2022/11/19 15:06:17;;;;;;;12.82;10.48;;;;;;;;;;4987319;28;20201;-77
2022/11/19 15:08:48;;;;;;;12.35;10.73;;;;;;;;;;4979107;28;20198;-77
2022/11/19 15:11:14;;;;;;;16.97;10.23;;;;;;;;;;4998046;28;20721;-79
2022/11/19 15:13:44;;;;;;;12.52;10.68;;;;;;;;;;4997687;28;20463;-80
2022/11/19 15:16:19;;;;;;;13.95;10.35;;;;;;;;;;5007704;28;20176;-77
2022/11/19 15:18:44;;;;;;;12.35;10.10;;;;;;;;;;4984427;28;20693;-77
2022/11/19 15:21:29;;;;;;;17.03;10.23;;;;;;;;;;4999078;28;20192;-80
2022/11/19 15:24:12;;;;;;;15.90;10.98;;;;;;;;;;4661220;28;10001567;-87
2022/11/19 15:26:44;;;;;;;12.43;10.68;;;;;;;;;;5007370;28;20188;-78
2022/11/19 15:29:32;;;;;;;12.43;9.45;;;;;;;;;;4997175;28;20555;-79
2022/11/19 15:32:16;;;;;;;16.10;10.40;;;;;;;;;;5001757;28;20174;-77
2022/11/19 15:35:15;;;;;;;17.20;11.30;;;;;;;;;;4992494;28;20750;-78
2022/11/19 15:37:41;;;;;;;16.00;10.10;;;;;;;;;;4965944;28;20223;-78